Time;durP1;ratioP1;P1;durP2;ratioP2;P2;SDS_P1;SDS_P2;PMS_P1;PMS_P2;Temp;Humidity;BMP_temperature;BMP_pressure;BME280_temperature;BME280_humidity;BME280_pressure;Samples;Min_cycle;Max_cycle;Signal;HPM_P1;HPM_P2
2020/12/19 00:00:28;;;;;;;40.08;16.23;;;6.20;99.90;;;;;;4989311;28;20142;-71
2020/12/19 00:02:55;;;;;;;40.60;18.10;;;6.20;99.90;;;;;;4973516;28;20058;-71
2020/12/19 00:05:21;;;;;;;48.65;17.67;;;6.20;99.90;;;;;;4987040;28;20438;-72
2020/12/19 00:07:48;;;;;;;40.47;16.88;;;6.20;99.90;;;;;;4990072;28;20104;-70
2020/12/19 00:10:14;;;;;;;47.63;16.10;;;6.30;99.90;;;;;;4990031;28;20460;-72
2020/12/19 00:12:45;;;;;;;39.25;16.60;;;6.20;99.90;;;;;;4987568;28;20054;-70
2020/12/19 00:15:16;;;;;;;41.88;16.80;;;6.30;99.90;;;;;;4988898;28;20050;-71
2020/12/19 00:17:43;;;;;;;56.33;20.45;;;6.10;99.90;;;;;;4988308;28;20112;-72
2020/12/19 00:20:10;;;;;;;50.85;19.17;;;6.10;99.90;;;;;;4988006;28;20054;-71
2020/12/19 00:22:37;;;;;;;49.20;19.13;;;6.00;99.90;;;;;;4988690;28;20433;-71
2020/12/19 00:25:04;;;;;;;46.75;18.20;;;6.10;99.90;;;;;;4970863;28;20047;-72
2020/12/19 00:27:31;;;;;;;43.60;17.45;;;6.10;99.90;;;;;;4972468;28;20537;-71
2020/12/19 00:29:57;;;;;;;53.00;20.08;;;6.20;99.90;;;;;;4990959;28;20054;-70
2020/12/19 00:32:23;;;;;;;42.30;17.50;;;6.20;99.90;;;;;;4988164;28;20097;-71
2020/12/19 00:34:55;;;;;;;49.35;18.85;;;6.20;99.90;;;;;;4971933;28;20456;-70
2020/12/19 00:37:23;;;;;;;50.85;19.13;;;6.10;99.90;;;;;;4989124;28;20076;-70
2020/12/19 00:39:50;;;;;;;60.85;19.85;;;6.00;99.90;;;;;;4987227;28;20398;-72
2020/12/19 00:42:18;;;;;;;51.13;18.90;;;5.90;99.90;;;;;;4988407;28;20104;-71
2020/12/19 00:44:44;;;;;;;61.28;21.05;;;6.00;99.90;;;;;;4990607;28;20128;-70
2020/12/19 00:47:10;;;;;;;64.35;20.85;;;5.90;99.90;;;;;;4989016;28;20054;-70
2020/12/19 00:49:37;;;;;;;57.55;22.38;;;5.90;99.90;;;;;;4989598;28;20168;-70
2020/12/19 00:52:04;;;;;;;67.72;22.98;;;5.90;99.90;;;;;;4990321;28;20057;-70
2020/12/19 00:54:30;;;;;;;69.00;21.77;;;5.80;99.90;;;;;;4985567;28;20081;-70
2020/12/19 00:56:57;;;;;;;80.70;22.65;;;5.80;99.90;;;;;;4990061;28;20821;-69
2020/12/19 00:59:23;;;;;;;68.32;21.92;;;5.80;99.90;;;;;;4987528;28;20051;-71
2020/12/19 01:01:49;;;;;;;70.40;21.27;;;5.90;99.90;;;;;;4973605;28;20062;-69
2020/12/19 01:04:16;;;;;;;64.45;19.75;;;5.80;99.90;;;;;;4987914;28;20096;-70
2020/12/19 01:06:42;;;;;;;92.55;19.38;;;5.70;99.90;;;;;;4985726;28;20477;-71
2020/12/19 01:09:09;;;;;;;81.78;20.33;;;5.70;99.90;;;;;;4979381;28;20097;-70
2020/12/19 01:11:37;;;;;;;55.13;18.45;;;5.90;99.90;;;;;;4987692;28;20486;-71
2020/12/19 01:14:05;;;;;;;54.72;19.30;;;5.90;99.90;;;;;;4988351;28;20475;-70
2020/12/19 01:16:31;;;;;;;52.17;18.85;;;5.80;99.90;;;;;;4989913;28;20059;-70
2020/12/19 01:19:04;;;;;;;52.60;19.27;;;5.90;99.90;;;;;;4990379;28;20074;-71
2020/12/19 01:21:31;;;;;;;49.47;19.33;;;5.80;99.90;;;;;;4992934;28;20500;-70
2020/12/19 01:23:58;;;;;;;50.83;19.63;;;5.90;99.90;;;;;;4990832;28;20061;-70
2020/12/19 01:26:25;;;;;;;48.67;19.10;;;5.90;99.90;;;;;;4982396;28;20112;-70
2020/12/19 01:28:52;;;;;;;51.47;19.25;;;6.00;99.90;;;;;;4990489;28;20748;-70
2020/12/19 01:31:20;;;;;;;50.83;19.17;;;6.00;99.90;;;;;;4971796;28;20046;-70
2020/12/19 01:33:48;;;;;;;51.53;19.58;;;6.10;99.90;;;;;;4991836;28;20512;-70
2020/12/19 01:36:17;;;;;;;47.92;19.08;;;5.90;99.90;;;;;;4989655;28;20110;-69
2020/12/19 01:38:43;;;;;;;55.40;20.63;;;5.80;99.90;;;;;;4992042;28;20050;-70
2020/12/19 01:41:10;;;;;;;54.60;20.33;;;5.90;99.90;;;;;;4987496;28;20042;-70
2020/12/19 01:43:57;;;;;;;59.67;19.52;;;5.90;99.90;;;;;;4971785;28;20096;-70
2020/12/19 01:46:46;;;;;;;42.20;18.45;;;5.70;99.90;;;;;;4988203;28;20105;-71
2020/12/19 01:49:13;;;;;;;46.95;19.20;;;5.60;99.90;;;;;;4987900;28;20062;-69
2020/12/19 01:51:40;;;;;;;43.60;18.38;;;5.60;99.90;;;;;;4976043;28;20053;-70
2020/12/19 01:54:08;;;;;;;52.40;17.60;;;5.70;99.90;;;;;;4997256;28;20552;-71
2020/12/19 01:56:46;;;;;;;46.60;17.88;;;5.80;99.90;;;;;;4992993;28;20133;-71
2020/12/19 01:59:13;;;;;;;39.17;16.73;;;5.60;99.90;;;;;;4990689;28;20110;-70
2020/12/19 02:02:06;;;;;;;32.53;15.07;;;5.50;99.90;;;;;;4991311;28;20064;-71
2020/12/19 02:04:33;;;;;;;34.58;14.02;;;5.50;99.90;;;;;;4991557;28;20056;-70
2020/12/19 02:07:03;;;;;;;28.83;14.00;;;5.60;99.90;;;;;;5000374;28;20116;-71
2020/12/19 02:09:39;;;;;;;38.58;14.27;;;5.50;99.90;;;;;;5003641;28;20077;-69
2020/12/19 02:12:08;;;;;;;33.20;13.45;;;5.50;99.90;;;;;;5007741;28;20442;-70
2020/12/19 02:14:36;;;;;;;31.58;13.70;;;5.50;99.90;;;;;;5005638;28;20541;-70
2020/12/19 02:17:05;;;;;;;27.20;13.10;;;5.60;99.90;;;;;;5013347;28;20042;-69
2020/12/19 02:19:32;;;;;;;29.20;14.73;;;5.50;99.90;;;;;;5006475;28;20045;-70
2020/12/19 02:21:59;;;;;;;24.83;12.35;;;5.70;99.90;;;;;;5000387;28;20054;-70
2020/12/19 02:24:26;;;;;;;22.00;12.63;;;5.70;99.90;;;;;;5004456;28;20051;-69
2020/12/19 02:26:56;;;;;;;25.48;12.82;;;5.70;99.90;;;;;;4993117;28;20094;-69
2020/12/19 02:29:24;;;;;;;21.77;11.93;;;5.70;99.90;;;;;;5005547;28;20413;-69
2020/12/19 02:31:51;;;;;;;22.55;11.55;;;5.60;99.90;;;;;;4986984;28;20108;-70
2020/12/19 02:34:17;;;;;;;23.02;11.85;;;5.70;99.90;;;;;;5002319;28;20132;-70
2020/12/19 02:36:44;;;;;;;18.67;11.13;;;5.50;99.90;;;;;;4990562;28;20116;-69
2020/12/19 02:39:11;;;;;;;20.00;11.20;;;5.60;99.90;;;;;;4998701;28;20104;-70
2020/12/19 02:41:39;;;;;;;19.05;10.10;;;5.70;99.90;;;;;;5010479;28;20048;-69
2020/12/19 02:44:07;;;;;;;19.70;10.20;;;5.80;99.90;;;;;;5009758;28;20108;-70
2020/12/19 02:46:34;;;;;;;18.30;10.82;;;5.90;99.90;;;;;;4993597;28;20110;-71
2020/12/19 02:49:01;;;;;;;21.27;11.60;;;5.90;99.90;;;;;;5008674;28;20477;-70
2020/12/19 02:51:27;;;;;;;18.77;11.27;;;5.90;99.90;;;;;;5008240;28;20045;-70
2020/12/19 02:53:54;;;;;;;18.27;10.73;;;5.90;99.90;;;;;;5011215;28;20045;-70
2020/12/19 02:56:20;;;;;;;18.33;10.50;;;6.10;99.90;;;;;;5005340;28;20406;-69
2020/12/19 02:58:47;;;;;;;19.27;11.05;;;6.10;99.90;;;;;;4978595;28;641748;-69
2020/12/19 03:01:13;;;;;;;17.77;10.45;;;6.20;99.90;;;;;;5004828;28;20100;-69
2020/12/19 03:03:39;;;;;;;21.25;12.45;;;6.10;99.90;;;;;;5009606;28;20057;-69
2020/12/19 03:06:24;;;;;;;18.17;10.95;;;5.80;99.90;;;;;;5002554;28;20049;-70
2020/12/19 03:08:50;;;;;;;22.15;11.85;;;6.00;99.90;;;;;;5004404;28;20054;-70
2020/12/19 03:11:17;;;;;;;20.98;11.88;;;6.00;99.90;;;;;;5001351;28;20156;-70
2020/12/19 03:13:43;;;;;;;22.55;11.63;;;6.00;99.90;;;;;;5012988;28;20049;-71
2020/12/19 03:16:10;;;;;;;21.38;11.75;;;6.10;99.90;;;;;;5007523;28;20045;-70
2020/12/19 03:18:36;;;;;;;21.95;11.07;;;6.10;99.90;;;;;;4993654;28;20042;-70
2020/12/19 03:21:04;;;;;;;16.60;10.82;;;6.10;99.90;;;;;;5011533;28;20052;-69
2020/12/19 03:23:30;;;;;;;21.00;10.98;;;6.30;99.90;;;;;;5006667;28;20054;-70
2020/12/19 03:25:57;;;;;;;21.77;10.88;;;6.30;99.90;;;;;;5010977;28;20133;-70
2020/12/19 03:28:23;;;;;;;17.23;10.23;;;6.30;99.90;;;;;;4994945;28;20108;-68
2020/12/19 03:30:49;;;;;;;18.48;9.98;;;6.30;99.90;;;;;;5012007;28;20520;-70
2020/12/19 03:33:16;;;;;;;17.63;10.55;;;6.20;99.90;;;;;;5007759;28;20112;-69
2020/12/19 03:35:42;;;;;;;20.45;11.25;;;6.10;99.90;;;;;;5000289;28;20058;-70
2020/12/19 03:38:09;;;;;;;18.20;10.88;;;6.10;99.90;;;;;;5011991;28;20050;-69
2020/12/19 03:40:35;;;;;;;19.45;10.43;;;6.20;99.90;;;;;;5009245;28;20581;-69
2020/12/19 03:43:02;;;;;;;18.38;10.65;;;6.20;99.90;;;;;;4991371;28;20050;-68
2020/12/19 03:45:28;;;;;;;19.50;10.43;;;6.20;99.90;;;;;;5006999;28;21134;-68
2020/12/19 03:47:54;;;;;;;17.35;9.73;;;6.20;99.90;;;;;;5005331;28;20105;-70
2020/12/19 03:50:21;;;;;;;18.85;9.90;;;6.20;99.90;;;;;;5009738;28;20062;-69
2020/12/19 03:52:47;;;;;;;18.52;10.63;;;6.20;99.90;;;;;;5007790;28;20090;-69
2020/12/19 03:55:14;;;;;;;17.65;10.18;;;6.20;99.90;;;;;;4991554;28;20112;-69
2020/12/19 03:57:40;;;;;;;17.15;10.48;;;6.30;99.90;;;;;;5009986;28;20068;-69
2020/12/19 04:00:08;;;;;;;18.23;10.05;;;6.40;99.90;;;;;;5004349;28;20046;-70
2020/12/19 04:02:35;;;;;;;18.15;10.40;;;6.30;99.90;;;;;;5006554;28;20054;-70
2020/12/19 04:05:07;;;;;;;16.60;10.25;;;6.20;99.90;;;;;;5006619;28;20050;-70
2020/12/19 04:07:33;;;;;;;18.05;10.23;;;6.10;99.90;;;;;;5007996;28;20056;-70
2020/12/19 04:09:59;;;;;;;17.60;10.38;;;6.20;99.90;;;;;;5012925;28;20058;-69
2020/12/19 04:12:26;;;;;;;16.00;9.63;;;6.10;99.90;;;;;;5000933;28;20077;-69
2020/12/19 04:14:52;;;;;;;19.35;10.05;;;6.00;99.90;;;;;;5007612;28;20046;-70
2020/12/19 04:17:18;;;;;;;18.10;10.10;;;6.10;99.90;;;;;;5006621;28;20477;-69
2020/12/19 04:19:45;;;;;;;21.08;11.40;;;6.10;99.90;;;;;;5005413;28;20037;-69
2020/12/19 04:22:11;;;;;;;20.45;11.20;;;6.00;99.90;;;;;;5009795;28;20085;-69
2020/12/19 04:24:37;;;;;;;23.80;12.38;;;6.00;99.90;;;;;;5008723;28;20444;-69
2020/12/19 04:27:04;;;;;;;25.40;13.27;;;6.00;99.90;;;;;;5004520;28;20466;-69
2020/12/19 04:29:31;;;;;;;24.30;12.70;;;5.90;99.90;;;;;;5011980;28;20104;-69
2020/12/19 04:31:59;;;;;;;26.30;12.63;;;5.90;99.90;;;;;;5003964;28;20465;-69
2020/12/19 04:34:26;;;;;;;29.55;13.75;;;5.90;99.90;;;;;;5011631;28;20046;-69
2020/12/19 04:36:52;;;;;;;25.42;13.43;;;5.90;99.90;;;;;;5010993;28;20547;-69
2020/12/19 04:39:20;;;;;;;29.67;13.60;;;5.80;99.90;;;;;;4987748;28;20069;-69
2020/12/19 04:41:47;;;;;;;25.65;13.63;;;5.80;99.90;;;;;;5010053;28;20053;-69
2020/12/19 04:44:13;;;;;;;28.00;13.75;;;5.80;99.90;;;;;;4994155;28;20054;-69
2020/12/19 04:46:41;;;;;;;28.52;14.18;;;5.70;99.90;;;;;;4997003;28;20093;-69
2020/12/19 04:49:08;;;;;;;30.38;15.27;;;5.70;99.90;;;;;;5009425;28;20096;-69
2020/12/19 04:51:36;;;;;;;32.15;14.88;;;5.80;99.90;;;;;;5008582;28;20058;-69
2020/12/19 04:54:04;;;;;;;30.55;14.68;;;5.70;99.90;;;;;;5011832;28;20050;-70
2020/12/19 04:56:31;;;;;;;31.85;14.93;;;5.60;99.90;;;;;;5004845;28;20041;-69
2020/12/19 04:58:59;;;;;;;31.15;14.82;;;5.60;99.90;;;;;;4994151;28;20436;-69
2020/12/19 05:01:26;;;;;;;28.13;14.27;;;5.50;99.90;;;;;;5007845;28;20629;-69
2020/12/19 05:03:53;;;;;;;30.20;14.25;;;5.50;99.90;;;;;;5005494;28;20042;-69
2020/12/19 05:06:25;;;;;;;27.75;13.25;;;5.50;99.90;;;;;;5004907;28;20062;-69
2020/12/19 05:08:52;;;;;;;27.40;13.23;;;5.50;99.90;;;;;;5007348;28;20050;-69
2020/12/19 05:11:19;;;;;;;33.05;13.63;;;5.50;99.90;;;;;;5008574;28;20049;-69
2020/12/19 05:13:46;;;;;;;30.27;13.68;;;5.40;99.90;;;;;;5008333;28;20054;-68
2020/12/19 05:16:15;;;;;;;31.67;14.02;;;5.40;99.90;;;;;;5003150;28;20054;-69
2020/12/19 05:18:42;;;;;;;23.92;11.95;;;5.30;99.90;;;;;;5008001;28;20477;-69
2020/12/19 05:21:10;;;;;;;30.63;12.32;;;5.30;99.90;;;;;;5009915;28;20049;-68
2020/12/19 05:23:38;;;;;;;24.70;12.32;;;5.20;99.90;;;;;;5006151;28;20049;-69
2020/12/19 05:26:07;;;;;;;27.63;13.65;;;5.20;99.90;;;;;;5010463;28;20351;-68
2020/12/19 05:28:34;;;;;;;24.85;12.70;;;5.20;99.90;;;;;;5005786;28;20096;-68
2020/12/19 05:31:01;;;;;;;23.80;12.48;;;5.10;99.90;;;;;;5005501;28;20049;-69
2020/12/19 05:33:36;;;;;;;27.80;13.60;;;5.10;99.90;;;;;;5010488;28;20073;-68
2020/12/19 05:36:04;;;;;;;22.98;11.98;;;5.10;99.90;;;;;;5001310;28;20042;-68
2020/12/19 05:38:36;;;;;;;25.63;12.98;;;5.10;99.90;;;;;;5008710;28;20054;-69
2020/12/19 05:41:03;;;;;;;23.63;12.18;;;5.20;99.90;;;;;;5008536;28;20092;-69
2020/12/19 05:43:29;;;;;;;27.88;12.98;;;5.30;99.90;;;;;;5002558;28;20061;-68
2020/12/19 05:45:56;;;;;;;24.05;12.70;;;5.40;99.90;;;;;;4999984;28;20502;-68
2020/12/19 05:48:22;;;;;;;25.90;13.07;;;5.40;99.90;;;;;;5003155;28;20384;-68
2020/12/19 05:50:48;;;;;;;24.42;12.30;;;5.30;99.90;;;;;;5009869;28;20046;-68
2020/12/19 05:53:15;;;;;;;24.75;11.65;;;5.20;99.90;;;;;;5010096;28;20042;-68
2020/12/19 05:55:43;;;;;;;23.23;11.75;;;5.30;99.90;;;;;;5003374;28;20073;-68
2020/12/19 05:58:10;;;;;;;20.65;11.88;;;5.30;99.90;;;;;;5008744;28;20052;-69
2020/12/19 06:00:38;;;;;;;22.33;11.73;;;5.30;99.90;;;;;;5001978;28;20050;-69
2020/12/19 06:03:05;;;;;;;23.55;11.63;;;5.40;99.90;;;;;;4991482;28;20604;-69
2020/12/19 06:05:32;;;;;;;22.90;12.07;;;5.50;99.90;;;;;;5004362;28;20115;-69
2020/12/19 06:08:19;;;;;;;21.27;11.63;;;5.50;99.90;;;;;;5005772;28;20136;-69
2020/12/19 06:10:47;;;;;;;22.80;11.75;;;5.40;99.90;;;;;;4992524;28;20054;-69
2020/12/19 06:13:16;;;;;;;24.42;12.88;;;5.40;99.90;;;;;;5002742;28;20042;-69
2020/12/19 06:16:07;;;;;;;23.55;10.85;;;5.40;99.90;;;;;;5004016;28;20058;-69
2020/12/19 06:18:51;;;;;;;22.77;11.80;;;5.30;99.90;;;;;;5011085;28;20097;-69
2020/12/19 06:21:20;;;;;;;26.00;12.20;;;5.50;99.90;;;;;;5003758;28;20134;-70
2020/12/19 06:23:46;;;;;;;24.40;12.65;;;5.40;99.90;;;;;;4985294;28;20465;-69
2020/12/19 06:26:14;;;;;;;25.42;13.23;;;5.40;99.90;;;;;;5009927;28;20088;-70
2020/12/19 06:28:43;;;;;;;27.83;12.68;;;5.30;99.90;;;;;;4992846;28;20100;-68
2020/12/19 06:31:18;;;;;;;24.77;12.68;;;5.20;99.90;;;;;;5008438;28;20432;-68
2020/12/19 06:33:52;;;;;;;24.98;13.18;;;5.20;99.90;;;;;;5008571;28;20050;-68
2020/12/19 06:36:22;;;;;;;25.08;13.07;;;5.20;99.90;;;;;;5007590;28;20490;-68
2020/12/19 06:38:53;;;;;;;23.98;11.52;;;5.20;99.90;;;;;;5006065;28;20046;-68
2020/12/19 06:41:40;;;;;;;;;;;5.30;99.90;;;;;;5011914;28;20054;-68
2020/12/19 06:44:22;;;;;;;20.58;10.90;;;5.30;99.90;;;;;;5011261;28;19984;-69
2020/12/19 06:46:49;;;;;;;22.50;12.05;;;5.20;99.90;;;;;;5006388;28;20050;-69
2020/12/19 06:49:28;;;;;;;20.30;11.57;;;5.20;99.90;;;;;;5006166;28;20057;-69
2020/12/19 06:52:06;;;;;;;21.10;11.63;;;5.30;99.90;;;;;;5012294;28;20116;-69
2020/12/19 06:54:36;;;;;;;20.58;10.57;;;5.30;99.90;;;;;;5009571;28;20042;-69
2020/12/19 06:57:03;;;;;;;19.40;11.13;;;5.20;99.90;;;;;;5011638;28;20096;-68
2020/12/19 06:59:30;;;;;;;18.80;10.73;;;5.20;99.90;;;;;;5011939;28;20100;-69
2020/12/19 07:02:12;;;;;;;18.95;10.15;;;5.20;99.90;;;;;;5009575;28;20045;-68
2020/12/19 07:04:39;;;;;;;19.13;10.95;;;5.20;99.90;;;;;;5009212;28;20069;-69
2020/12/19 07:07:07;;;;;;;19.70;10.25;;;5.10;99.90;;;;;;5013583;28;20046;-69
2020/12/19 07:09:34;;;;;;;17.95;10.57;;;5.20;99.90;;;;;;5007268;28;20489;-70
2020/12/19 07:12:01;;;;;;;21.50;10.98;;;5.20;99.90;;;;;;5000118;28;20463;-68
2020/12/19 07:14:42;;;;;;;18.95;10.55;;;5.20;99.90;;;;;;5010377;28;20050;-68
2020/12/19 07:17:18;;;;;;;18.83;11.35;;;5.10;99.90;;;;;;5008654;28;20112;-68
2020/12/19 07:19:46;;;;;;;21.55;10.82;;;5.00;99.90;;;;;;4998469;28;20062;-70
2020/12/19 07:22:13;;;;;;;18.50;10.75;;;5.00;99.90;;;;;;5014519;28;20052;-68
2020/12/19 07:24:40;;;;;;;19.80;10.60;;;5.00;99.90;;;;;;5007347;28;20107;-70
2020/12/19 07:27:06;;;;;;;21.73;11.60;;;5.00;99.90;;;;;;5010338;28;20050;-68
2020/12/19 07:29:32;;;;;;;17.73;9.80;;;5.00;99.90;;;;;;5011556;28;20049;-69
2020/12/19 07:32:00;;;;;;;19.33;10.80;;;5.20;99.90;;;;;;5005969;28;20072;-69
2020/12/19 07:34:27;;;;;;;17.90;10.18;;;5.30;99.90;;;;;;5014045;28;20116;-69
2020/12/19 07:36:54;;;;;;;19.63;11.30;;;5.30;99.90;;;;;;4989959;28;20050;-69
2020/12/19 07:39:22;;;;;;;19.17;10.30;;;5.10;99.90;;;;;;5006440;28;20058;-70
2020/12/19 07:42:08;;;;;;;16.17;10.55;;;5.20;99.90;;;;;;5011964;28;20057;-69
2020/12/19 07:44:37;;;;;;;17.83;9.68;;;5.30;99.90;;;;;;5005817;28;20636;-69
2020/12/19 07:47:07;;;;;;;20.00;11.02;;;5.30;99.90;;;;;;4998761;28;20502;-69
2020/12/19 07:49:36;;;;;;;19.33;11.45;;;5.40;99.90;;;;;;5008800;28;20147;-69
2020/12/19 07:52:13;;;;;;;18.23;10.57;;;5.40;99.90;;;;;;5010697;28;20046;-69
2020/12/19 07:54:49;;;;;;;18.48;10.38;;;5.40;99.90;;;;;;5005837;28;20058;-69
2020/12/19 07:57:16;;;;;;;19.38;10.65;;;5.50;99.90;;;;;;4993892;28;20129;-69
2020/12/19 07:59:43;;;;;;;18.90;10.85;;;5.40;99.90;;;;;;5008404;28;20477;-68
2020/12/19 08:02:13;;;;;;;18.92;10.98;;;5.40;99.90;;;;;;5012753;28;20544;-69
2020/12/19 08:04:46;;;;;;;20.42;10.88;;;5.40;99.90;;;;;;5004237;28;20054;-70
2020/12/19 08:07:13;;;;;;;19.90;10.23;;;5.50;99.90;;;;;;5010083;28;20141;-69
2020/12/19 08:09:40;;;;;;;20.08;11.10;;;5.50;99.90;;;;;;5009536;28;20539;-69
2020/12/19 08:12:09;;;;;;;16.05;9.93;;;5.70;99.90;;;;;;5005705;28;20047;-69
2020/12/19 08:14:35;;;;;;;16.13;8.80;;;5.80;99.90;;;;;;5001678;28;20124;-69
2020/12/19 08:17:06;;;;;;;18.23;9.10;;;5.90;99.90;;;;;;5006105;28;20058;-69
2020/12/19 08:19:38;;;;;;;;;;;5.80;99.90;;;;;;5009299;28;20041;-70
2020/12/19 08:22:06;;;;;;;15.38;8.35;;;5.80;99.90;;;;;;5012823;28;19921;-69
2020/12/19 08:24:33;;;;;;;13.68;7.35;;;5.80;99.90;;;;;;5006373;28;20050;-69
2020/12/19 08:27:40;;;;;;;18.05;9.27;;;5.80;99.90;;;;;;5011356;28;20547;-69
2020/12/19 08:30:18;;;;;;;14.25;7.68;;;5.90;99.90;;;;;;5012029;28;20046;-70
2020/12/19 08:32:49;;;;;;;16.05;8.45;;;6.10;99.90;;;;;;5003435;28;20045;-70
2020/12/19 08:35:22;;;;;;;14.15;8.07;;;6.10;99.90;;;;;;4988131;28;20382;-69
2020/12/19 08:37:49;;;;;;;13.35;7.78;;;6.20;99.90;;;;;;5009384;28;20046;-70
2020/12/19 08:40:20;;;;;;;14.75;7.53;;;6.20;99.90;;;;;;5003437;28;20104;-69
2020/12/19 08:42:49;;;;;;;15.18;7.93;;;6.20;99.90;;;;;;5012494;28;20053;-69
2020/12/19 08:45:30;;;;;;;13.32;8.02;;;6.30;99.90;;;;;;4992611;28;20054;-69
2020/12/19 08:48:00;;;;;;;18.88;9.15;;;6.40;99.90;;;;;;4984852;28;20047;-70
2020/12/19 08:50:29;;;;;;;14.20;8.88;;;6.30;99.90;;;;;;5012514;28;20120;-68
2020/12/19 08:53:05;;;;;;;15.50;9.40;;;6.40;99.90;;;;;;5008103;28;20112;-69
2020/12/19 08:55:32;;;;;;;17.95;8.57;;;6.30;99.90;;;;;;4990806;28;20546;-70
2020/12/19 08:57:59;;;;;;;16.90;9.57;;;6.30;99.90;;;;;;5010613;28;20116;-70
2020/12/19 09:00:31;;;;;;;15.02;9.02;;;6.30;99.90;;;;;;5004996;28;20124;-70
2020/12/19 09:03:03;;;;;;;16.48;8.98;;;6.50;99.90;;;;;;5009532;28;20470;-69
2020/12/19 09:05:31;;;;;;;19.10;9.50;;;6.60;99.90;;;;;;4990318;28;20069;-69
2020/12/19 09:07:58;;;;;;;18.35;9.35;;;6.70;99.90;;;;;;4994494;28;20046;-68
2020/12/19 09:10:30;;;;;;;18.95;9.48;;;6.60;99.90;;;;;;5010302;28;20057;-70
2020/12/19 09:13:18;;;;;;;15.32;8.68;;;6.60;99.90;;;;;;5002902;28;20042;-70
2020/12/19 09:15:45;;;;;;;14.65;8.18;;;6.70;99.90;;;;;;5006304;28;20450;-70
2020/12/19 09:18:23;;;;;;;16.55;8.18;;;7.70;99.90;;;;;;5010397;28;20100;-70
2020/12/19 09:20:56;;;;;;;13.95;8.10;;;8.60;99.90;;;;;;4991820;28;20050;-70
2020/12/19 09:23:23;;;;;;;18.33;8.32;;;8.90;99.90;;;;;;5005978;28;20054;-69
2020/12/19 09:25:50;;;;;;;14.88;8.55;;;8.30;99.90;;;;;;5007687;28;20054;-70
2020/12/19 09:28:17;;;;;;;12.95;7.75;;;8.10;99.90;;;;;;4993535;28;20051;-70
2020/12/19 09:30:43;;;;;;;17.40;9.65;;;7.80;99.90;;;;;;5006132;28;20054;-72
2020/12/19 09:33:10;;;;;;;19.38;9.88;;;7.60;99.90;;;;;;5000363;28;20129;-69
2020/12/19 09:35:37;;;;;;;16.30;8.77;;;7.70;99.90;;;;;;4988006;28;20100;-70
2020/12/19 09:38:04;;;;;;;12.95;8.70;;;7.80;99.90;;;;;;5003164;28;20176;-70
2020/12/19 09:40:30;;;;;;;14.15;8.77;;;7.90;99.90;;;;;;5006829;28;20096;-70
2020/12/19 09:42:57;;;;;;;18.35;8.55;;;8.20;99.90;;;;;;5010355;28;20390;-69
2020/12/19 09:45:24;;;;;;;24.15;8.85;;;8.60;99.90;;;;;;5003745;28;20050;-70
2020/12/19 09:47:55;;;;;;;15.30;7.72;;;8.80;99.90;;;;;;5008832;28;20092;-69
2020/12/19 09:50:22;;;;;;;13.88;7.78;;;8.70;99.90;;;;;;5006959;28;20073;-69
2020/12/19 09:52:49;;;;;;;13.70;7.07;;;8.70;99.90;;;;;;5006780;28;20045;-69
2020/12/19 09:55:16;;;;;;;10.85;7.03;;;8.70;99.90;;;;;;5006136;28;20145;-69
2020/12/19 09:57:43;;;;;;;14.90;7.43;;;8.70;99.90;;;;;;5004259;28;20046;-69
2020/12/19 10:00:11;;;;;;;10.43;6.30;;;8.70;99.90;;;;;;5003801;28;20054;-70
2020/12/19 10:02:39;;;;;;;12.55;6.65;;;8.80;99.90;;;;;;5002117;28;20493;-69
2020/12/19 10:05:06;;;;;;;11.40;6.40;;;8.80;99.90;;;;;;5005018;28;20046;-70
2020/12/19 10:07:33;;;;;;;13.57;7.10;;;8.80;99.90;;;;;;4993436;28;20100;-70
2020/12/19 10:09:59;;;;;;;13.45;5.85;;;8.90;99.90;;;;;;4995992;28;20061;-72
2020/12/19 10:12:26;;;;;;;13.43;5.82;;;9.00;99.90;;;;;;4982544;28;20049;-70
2020/12/19 10:14:52;;;;;;;11.13;5.75;;;9.00;99.90;;;;;;4992470;28;20656;-68
2020/12/19 10:17:18;;;;;;;8.57;5.20;;;9.10;99.90;;;;;;4988702;28;20086;-70
2020/12/19 10:19:45;;;;;;;9.05;5.10;;;9.10;99.90;;;;;;4994551;28;20049;-69
2020/12/19 10:22:11;;;;;;;8.63;5.30;;;9.10;99.90;;;;;;4990487;28;20050;-69
2020/12/19 10:24:37;;;;;;;7.88;5.00;;;9.20;99.90;;;;;;4995933;28;20449;-68
2020/12/19 10:27:04;;;;;;;8.43;5.13;;;9.20;99.90;;;;;;4993601;28;20062;-70
2020/12/19 10:29:30;;;;;;;9.13;5.32;;;9.10;99.90;;;;;;4992504;28;20058;-70
2020/12/19 10:31:56;;;;;;;7.43;5.13;;;9.20;99.90;;;;;;4993290;28;20097;-69
2020/12/19 10:34:23;;;;;;;12.10;5.55;;;9.20;99.90;;;;;;4973942;28;20484;-69
2020/12/19 10:36:50;;;;;;;8.45;5.45;;;9.30;99.90;;;;;;4974535;28;20485;-70
2020/12/19 10:39:17;;;;;;;13.40;6.95;;;9.30;99.90;;;;;;4970660;28;20413;-70
2020/12/19 10:41:47;;;;;;;8.70;5.85;;;9.30;99.90;;;;;;4973063;28;20096;-71
2020/12/19 10:44:13;;;;;;;10.07;6.20;;;9.30;99.90;;;;;;4991655;28;20093;-70
2020/12/19 10:46:39;;;;;;;12.95;5.80;;;9.30;99.90;;;;;;4989178;28;20065;-70
2020/12/19 10:49:06;;;;;;;9.18;5.50;;;9.30;99.90;;;;;;4991601;28;20058;-69
2020/12/19 10:51:32;;;;;;;9.80;5.93;;;9.40;99.90;;;;;;4991616;28;20057;-69
2020/12/19 10:53:59;;;;;;;9.35;5.28;;;9.40;99.90;;;;;;4992405;28;20112;-70
2020/12/19 10:59:54;;;;;;;9.27;6.25;;;9.50;99.90;;;;;;4985666;28;20128;-70
2020/12/19 11:02:21;;;;;;;13.70;7.07;;;9.50;99.90;;;;;;4971973;28;20108;-71
2020/12/19 11:04:47;;;;;;;15.40;6.60;;;9.50;99.90;;;;;;4991409;28;20049;-70
2020/12/19 11:07:14;;;;;;;10.50;5.93;;;9.60;99.90;;;;;;4971140;28;20375;-70
2020/12/19 11:09:40;;;;;;;15.75;6.93;;;9.60;99.90;;;;;;4992549;28;20050;-71
2020/12/19 11:12:06;;;;;;;11.77;6.85;;;9.70;99.90;;;;;;4991253;28;20702;-69
2020/12/19 11:14:36;;;;;;;14.38;7.18;;;9.70;99.90;;;;;;4985941;28;20124;-70
2020/12/19 11:17:03;;;;;;;12.17;7.23;;;9.70;99.90;;;;;;4988530;28;20090;-70
2020/12/19 11:19:36;;;;;;;13.18;7.40;;;9.70;99.90;;;;;;4991160;28;20899;-70
2020/12/19 11:22:03;;;;;;;13.95;7.22;;;9.70;99.90;;;;;;4987472;28;20104;-69
2020/12/19 11:24:29;;;;;;;11.93;6.43;;;9.70;99.90;;;;;;4989238;28;20104;-70
2020/12/19 11:26:55;;;;;;;13.90;7.30;;;9.60;99.90;;;;;;4975898;28;20062;-71
2020/12/19 11:29:22;;;;;;;11.95;6.88;;;9.70;99.90;;;;;;4986585;28;20054;-70
2020/12/19 11:31:48;;;;;;;15.60;7.25;;;9.70;99.90;;;;;;4989186;28;20928;-69
2020/12/19 11:34:16;;;;;;;13.52;7.80;;;9.80;99.90;;;;;;4991468;28;20412;-71
2020/12/19 11:36:42;;;;;;;14.85;7.70;;;9.90;99.90;;;;;;4988214;28;20464;-69
2020/12/19 11:39:11;;;;;;;13.77;7.65;;;9.80;99.90;;;;;;4986833;28;20131;-71
2020/12/19 11:41:38;;;;;;;14.13;7.80;;;9.90;99.90;;;;;;4993639;28;20050;-71
2020/12/19 11:44:06;;;;;;;17.00;8.48;;;10.00;99.90;;;;;;4988631;28;20054;-70
2020/12/19 11:46:32;;;;;;;13.68;7.57;;;10.00;99.90;;;;;;4989098;28;20124;-70
2020/12/19 11:48:58;;;;;;;20.85;9.68;;;10.00;99.90;;;;;;4975025;28;20085;-70
2020/12/19 11:51:30;;;;;;;11.85;7.05;;;10.10;99.90;;;;;;4990819;28;20085;-72
2020/12/19 11:53:58;;;;;;;12.65;7.10;;;10.00;99.90;;;;;;4990706;28;20402;-73
2020/12/19 11:56:25;;;;;;;15.18;8.38;;;10.10;99.90;;;;;;4989076;28;20109;-70
2020/12/19 11:58:52;;;;;;;11.57;7.20;;;10.10;99.90;;;;;;4987557;28;20070;-75
2020/12/19 12:01:18;;;;;;;12.70;6.60;;;10.10;99.90;;;;;;4972497;28;20041;-73
2020/12/19 12:03:45;;;;;;;12.77;6.00;;;10.40;99.90;;;;;;4987428;28;20774;-73
2020/12/19 12:06:11;;;;;;;14.20;7.38;;;10.50;99.90;;;;;;4989906;28;20481;-73
2020/12/19 12:08:41;;;;;;;12.52;6.53;;;10.30;99.90;;;;;;4980417;28;20080;-73
2020/12/19 12:11:08;;;;;;;;;;;10.30;99.90;;;;;;4991071;28;20050;-70
2020/12/19 12:13:34;;;;;;;13.05;6.63;;;10.20;99.90;;;;;;4989151;28;19984;-69
2020/12/19 12:16:01;;;;;;;11.13;7.00;;;10.20;99.90;;;;;;4990174;28;20050;-71
2020/12/19 12:18:27;;;;;;;10.43;6.63;;;10.30;99.90;;;;;;4990485;28;20419;-71
2020/12/19 12:20:54;;;;;;;9.55;6.30;;;10.40;99.90;;;;;;4990082;28;20074;-70
2020/12/19 12:23:20;;;;;;;8.82;5.47;;;10.40;99.90;;;;;;4987798;28;20057;-70
2020/12/19 12:25:50;;;;;;;11.57;5.90;;;10.40;99.90;;;;;;4974878;28;20429;-71
2020/12/19 12:28:16;;;;;;;9.77;5.35;;;10.50;99.90;;;;;;4987941;28;20492;-72
2020/12/19 12:30:43;;;;;;;15.45;8.13;;;10.50;99.90;;;;;;4987187;28;20046;-72
2020/12/19 12:33:10;;;;;;;12.18;6.63;;;10.50;99.90;;;;;;4989913;28;20058;-73
2020/12/19 12:35:37;;;;;;;9.00;5.28;;;10.50;99.90;;;;;;4988001;28;20516;-71
2020/12/19 12:38:05;;;;;;;8.55;5.20;;;10.50;99.90;;;;;;4989054;28;20125;-71
2020/12/19 12:40:31;;;;;;;9.70;5.80;;;10.40;99.90;;;;;;4989136;28;20050;-70
2020/12/19 12:42:57;;;;;;;9.23;5.30;;;10.50;99.90;;;;;;4988058;28;20115;-73
2020/12/19 12:45:24;;;;;;;7.80;5.07;;;10.50;99.90;;;;;;4986155;28;20049;-73
2020/12/19 12:47:50;;;;;;;7.75;5.20;;;10.50;99.90;;;;;;4989138;28;20058;-73
2020/12/19 12:50:16;;;;;;;10.57;5.93;;;10.50;99.90;;;;;;4969300;28;20568;-73